Time;durP1;ratioP1;P1;durP2;ratioP2;P2;SDS_P1;SDS_P2;PMS_P1;PMS_P2;Temp;Humidity;BMP_temperature;BMP_pressure;BME280_temperature;BME280_humidity;BME280_pressure;Samples;Min_cycle;Max_cycle;Signal;HPM_P1;HPM_P2
2022/11/20 07:17:02;;;;;;;;;;;;;;;;;;5897936;23;19930;-78
2022/11/20 07:19:28;;;;;;;;;;;;;;;;;;4975115;28;19918;-78
2022/11/20 07:21:53;;;;;;;;;;;;;;;;;;4954767;29;19915;-78
2022/11/20 07:24:18;;;;;;;;;;;;;;;;;;4957112;29;19914;-78
2022/11/20 07:26:46;;;;;;;;;;;;;;;;;;4956988;29;20436;-78
2022/11/20 07:29:11;;;;;;;;;;;;;;;;;;4957171;29;19938;-78
2022/11/20 07:31:36;;;;;;;;;;;;;;;;;;4957032;29;19921;-78
2022/11/20 07:34:02;;;;;;;;;;;;;;;;;;4957145;29;20292;-78
2022/11/20 07:36:27;;;;;;;;;;;;;;;;;;4956510;29;20363;-80
2022/11/20 07:38:52;;;;;;;;;;;;;;;;;;4957547;29;19922;-79
2022/11/20 07:41:18;;;;;;;;;;;;;;;;;;4942358;29;19962;-81
2022/11/20 07:43:43;;;;;;;;;;;;;;;;;;4938414;29;19915;-79
2022/11/20 07:46:08;;;;;;;;;;;;;;;;;;4937123;29;20273;-81
2022/11/20 07:48:34;;;;;;;;;;;;;;;;;;4937981;29;19914;-81
2022/11/20 07:50:59;;;;;;;;;;;;;;;;;;4938072;29;19915;-78
2022/11/20 07:53:24;;;;;;;;;;;;;;;;;;4937720;29;19915;-80
2022/11/20 07:55:52;;;;;;;;;;;;;;;;;;4937848;29;20258;-83
2022/11/20 07:58:17;;;;;;;;;;;;;;;;;;4937532;29;20006;-83
2022/11/20 08:00:43;;;;;;;;;;;;;;;;;;4937831;29;19950;-85
2022/11/20 08:03:08;;;;;;;;;;;;;;;;;;4937585;29;20373;-81
2022/11/20 10:33:59;;;;;;;5.28;3.90;;;;;;;;;;4954338;29;20108;-86
2022/11/20 10:36:33;;;;;;;4.07;3.67;;;;;;;;;;4958934;29;20857;-89
2022/11/20 10:39:55;;;;;;;2.60;2.40;;;;;;;;;;4957246;28;20042;-80
2022/11/20 10:42:36;;;;;;;3.42;2.42;;;;;;;;;;4898618;29;20040;-77
2022/11/20 10:45:16;;;;;;;3.85;2.88;;;;;;;;;;4906018;29;20132;-75
2022/11/20 10:47:41;;;;;;;2.72;2.45;;;;;;;;;;4914157;29;20063;-78
2022/11/20 10:50:14;;;;;;;2.63;2.30;;;;;;;;;;4922218;29;20028;-79
2022/11/20 10:52:39;;;;;;;;;;;;;;;;;;4940414;29;20034;-76
2022/11/20 10:55:23;;;;;;;;;;;;;;;;;;4957760;29;19914;-77
2022/11/20 10:58:01;;;;;;;;;;;;;;;;;;4957672;29;20399;-84
2022/11/20 11:00:27;;;;;;;3.03;2.60;;;;;;;;;;4955336;28;20005;-88
2022/11/20 11:02:53;;;;;;;;;;;;;;;;;;4938191;29;20118;-91
2022/11/20 11:05:21;;;;;;;;;;;;;;;;;;4938461;29;19951;-86
2022/11/20 11:07:49;;;;;;;;;;;;;;;;;;4936210;29;20289;-83
2022/11/20 11:10:17;;;;;;;;;;;;;;;;;;4936701;29;19941;-82
2022/11/20 11:12:48;;;;;;;;;;;;;;;;;;4939962;29;20009;-88
2022/11/20 11:15:40;;;;;;;2.85;2.63;;;;;;;;;;4938418;29;19921;-88
2022/11/20 11:18:10;;;;;;;2.78;2.53;;;;;;;;;;4936080;29;20435;-83
2022/11/20 11:20:36;;;;;;;;;;;;;;;;;;4938044;29;20032;-82
2022/11/20 11:23:01;;;;;;;;;;;;;;;;;;4938244;29;19921;-85
2022/11/20 11:25:27;;;;;;;;;;;;;;;;;;4917827;29;19922;-84
2022/11/20 11:27:54;;;;;;;;;;;;;;;;;;4917934;29;19915;-82
2022/11/20 11:30:22;;;;;;;;;;;;;;;;;;4937248;29;19930;-83
2022/11/20 11:32:47;;;;;;;;;;;;;;;;;;4933605;29;19915;-82
2022/11/20 11:35:23;;;;;;;;;;;;;;;;;;4935978;29;20000;-82
2022/11/20 11:37:48;;;;;;;;;;;;;;;;;;4937849;29;19918;-83
2022/11/20 11:40:15;;;;;;;;;;;;;;;;;;4938200;29;19925;-86
2022/11/20 11:42:44;;;;;;;;;;;;;;;;;;4937987;29;19978;-86
2022/11/20 11:45:17;;;;;;;;;;;;;;;;;;4938034;29;19962;-84
2022/11/20 11:47:42;;;;;;;;;;;;;;;;;;4938053;29;19966;-84
2022/11/20 11:50:20;;;;;;;;;;;;;;;;;;4937638;29;20362;-86
2022/11/20 11:53:05;;;;;;;;;;;;;;;;;;4936978;29;19921;-86
2022/11/20 11:55:43;;;;;;;;;;;;;;;;;;4930397;29;19918;-86
2022/11/20 11:58:27;;;;;;;;;;;;;;;;;;4918608;29;19915;-83
2022/11/20 12:01:11;;;;;;;;;;;;;;;;;;4937414;29;19914;-84
2022/11/20 12:03:38;;;;;;;;;;;;;;;;;;4937891;29;20035;-86
2022/11/20 12:06:16;;;;;;;;;;;;;;;;;;4941729;29;19915;-83
2022/11/20 12:08:48;;;;;;;;;;;;;;;;;;4937390;29;20058;-82
2022/11/20 12:11:19;;;;;;;;;;;;;;;;;;4937439;29;19946;-87
2022/11/20 12:13:50;;;;;;;;;;;;;;;;;;4937709;29;19919;-84
2022/11/20 12:16:18;;;;;;;;;;;;;;;;;;4937690;29;20270;-84
2022/11/20 12:18:45;;;;;;;;;;;;;;;;;;4937404;29;19921;-81
2022/11/20 12:21:23;;;;;;;;;;;;;;;;;;4937261;29;19914;-83
2022/11/20 12:23:48;;;;;;;;;;;;;;;;;;4937456;29;20284;-86
2022/11/20 12:26:22;;;;;;;;;;;;;;;;;;4937793;29;19919;-87
2022/11/20 12:28:51;;;;;;;;;;;;;;;;;;4918227;29;19915;-90
2022/11/20 12:31:19;;;;;;;;;;;;;;;;;;4936147;29;19946;-89
2022/11/20 12:34:10;;;;;;;;;;;;;;;;;;4916980;29;19930;-90
2022/11/20 12:36:36;;;;;;;;;;;;;;;;;;4918306;29;19918;-88
2022/11/20 12:39:09;;;;;;;;;;;;;;;;;;4918212;29;19970;-80
2022/11/20 12:47:24;;;;;;;;;;;;;;;;;;4918552;29;20377;-84
2022/11/20 12:50:08;;;;;;;;;;;;;;;;;;4917939;29;20331;-81
2022/11/20 12:52:56;;;;;;;;;;;;;;;;;;4918124;29;20289;-81
2022/11/20 12:55:30;;;;;;;;;;;;;;;;;;4918061;29;19915;-84
2022/11/20 12:58:05;;;;;;;;;;;;;;;;;;4917641;29;19911;-86
2022/11/20 13:00:33;;;;;;;;;;;;;;;;;;4917730;29;19915;-82
2022/11/20 13:02:58;;;;;;;;;;;;;;;;;;4919306;29;19911;-82
2022/11/20 13:05:44;;;;;;;;;;;;;;;;;;4922096;29;20376;-88
2022/11/20 13:08:17;;;;;;;;;;;;;;;;;;4900144;29;19915;-89
2022/11/20 13:10:49;;;;;;;;;;;;;;;;;;4922310;29;19915;-85
2022/11/20 13:13:20;;;;;;;;;;;;;;;;;;4922154;29;19938;-84
2022/11/20 13:15:50;;;;;;;;;;;;;;;;;;4921928;29;19922;-88
2022/11/20 13:18:16;;;;;;;;;;;;;;;;;;4919527;29;20282;-86
2022/11/20 13:20:43;;;;;;;;;;;;;;;;;;4922135;29;19916;-87
2022/11/20 13:23:08;;;;;;;;;;;;;;;;;;4918502;29;19919;-87
2022/11/20 13:25:35;;;;;;;;;;;;;;;;;;4922309;29;19925;-86
2022/11/20 13:28:03;;;;;;;;;;;;;;;;;;4921879;29;20333;-84
2022/11/20 13:30:29;;;;;;;;;;;;;;;;;;4922180;29;19961;-89
2022/11/20 13:32:59;;;;;;;;;;;;;;;;;;4921774;29;19915;-86
2022/11/20 13:35:36;;;;;;;;;;;;;;;;;;4939123;29;20005;-89
2022/11/20 13:38:03;;;;;;;;;;;;;;;;;;4940797;29;20359;-86
2022/11/20 13:40:28;;;;;;;;;;;;;;;;;;4940961;29;19910;-86
2022/11/20 13:42:53;;;;;;;;;;;;;;;;;;4920464;29;19922;-89
2022/11/20 13:45:23;;;;;;;;;;;;;;;;;;4939463;29;19958;-90
2022/11/20 13:47:49;;;;;;;;;;;;;;;;;;4920131;29;20009;-90
2022/11/20 13:50:15;;;;;;;;;;;;;;;;;;4922006;29;20391;-87
2022/11/20 13:52:46;;;;;;;;;;;;;;;;;;4940097;29;19958;-87
2022/11/20 13:55:32;;;;;;;;;;;;;;;;;;4940461;29;19915;-87
2022/11/20 13:57:57;;;;;;;;;;;;;;;;;;4916290;29;19921;-88
2022/11/20 14:00:24;;;;;;;;;;;;;;;;;;4940085;29;19915;-86
2022/11/20 14:02:52;;;;;;;;;;;;;;;;;;4940298;29;19915;-88
2022/11/20 14:05:20;;;;;;;;;;;;;;;;;;4939958;29;19915;-88
2022/11/20 14:07:47;;;;;;;;;;;;;;;;;;4940127;29;19914;-87
2022/11/20 14:10:22;;;;;;;;;;;;;;;;;;4940108;29;19970;-89
2022/11/20 14:12:48;;;;;;;;;;;;;;;;;;4920268;29;19915;-86
2022/11/20 14:15:27;;;;;;;;;;;;;;;;;;4937423;29;19914;-87
2022/11/20 14:17:52;;;;;;;;;;;;;;;;;;4940097;29;19958;-89
2022/11/20 14:20:22;;;;;;;;;;;;;;;;;;4939863;29;20359;-88
2022/11/20 14:22:51;;;;;;;;;;;;;;;;;;4939881;29;20001;-86
2022/11/20 14:25:17;;;;;;;;;;;;;;;;;;4939635;29;19922;-89
2022/11/20 14:27:44;;;;;;;;;;;;;;;;;;4940015;29;19922;-87
2022/11/20 14:30:14;;;;;;;;;;;;;;;;;;4940245;29;19938;-90
2022/11/20 14:32:40;;;;;;;;;;;;;;;;;;4940379;29;20357;-90
2022/11/20 14:35:12;;;;;;;;;;;;;;;;;;4939755;29;19925;-91
2022/11/20 14:37:38;;;;;;;;;;;;;;;;;;4919253;29;19919;-87
2022/11/20 14:40:24;;;;;;;;;;;;;;;;;;4936474;29;19915;-90
2022/11/20 14:42:49;;;;;;;;;;;;;;;;;;4939334;29;19915;-88
2022/11/20 14:45:15;;;;;;;;;;;;;;;;;;4939688;29;19918;-84
2022/11/20 14:47:41;;;;;;;;;;;;;;;;;;4939152;29;19915;-87
2022/11/20 16:11:41;;;;;;;4.25;3.70;;;;;;;;;;4941546;28;20050;-86
2022/11/20 16:16:54;;;;;;;6.82;4.72;;;;;;;;;;4983962;28;20033;-85
2022/11/20 16:19:20;;;;;;;5.20;4.13;;;;;;;;;;4968075;28;20385;-84
2022/11/20 16:21:45;;;;;;;4.43;3.45;;;;;;;;;;4986407;28;20026;-86
2022/11/20 16:24:12;;;;;;;3.33;3.03;;;;;;;;;;4977855;28;20454;-86
2022/11/20 16:26:39;;;;;;;5.72;2.63;;;;;;;;;;4975819;28;20027;-84
2022/11/20 16:29:05;;;;;;;2.60;2.35;;;;;;;;;;4976493;28;20022;-86
2022/11/20 16:31:32;;;;;;;2.88;2.47;;;;;;;;;;4970458;28;20040;-89
2022/11/20 16:34:03;;;;;;;3.45;2.80;;;;;;;;;;4976365;28;20034;-87
2022/11/20 16:36:29;;;;;;;11.15;7.30;;;;;;;;;;4958857;28;20049;-84
2022/11/20 16:38:56;;;;;;;4.25;3.55;;;;;;;;;;4958557;28;20066;-90
2022/11/20 16:41:23;;;;;;;3.30;2.90;;;;;;;;;;4976803;28;20434;-89
2022/11/20 16:43:51;;;;;;;4.85;4.00;;;;;;;;;;4962622;28;20089;-83
2022/11/20 16:46:19;;;;;;;7.30;6.70;;;;;;;;;;4981100;28;20436;-89
2022/11/20 16:48:51;;;;;;;4.68;3.40;;;;;;;;;;4973216;28;20026;-86
2022/11/20 16:51:16;;;;;;;;;;;;;;;;;;4964854;28;20681;-85
2022/11/20 16:53:42;;;;;;;;;;;;;;;;;;4984766;28;19981;-84
2022/11/20 16:56:12;;;;;;;;;;;;;;;;;;4986788;28;19914;-86
2022/11/20 16:58:37;;;;;;;;;;;;;;;;;;4984962;28;20012;-83
2022/11/20 17:01:09;;;;;;;;;;;;;;;;;;4981375;28;19953;-84
2022/11/20 17:03:34;;;;;;;;;;;;;;;;;;4962194;28;20254;-84
2022/11/20 17:05:59;;;;;;;;;;;;;;;;;;4982042;28;19921;-85
2022/11/20 17:08:29;;;;;;;;;;;;;;;;;;4983425;28;19921;-85
2022/11/20 17:10:54;;;;;;;;;;;;;;;;;;4987536;28;20291;-85
2022/11/20 17:13:19;;;;;;;;;;;;;;;;;;4986454;28;19938;-86
2022/11/20 17:15:45;;;;;;;;;;;;;;;;;;4969492;28;19914;-87
2022/11/20 17:18:10;;;;;;;;;;;;;;;;;;4985705;28;19914;-87
2022/11/20 17:20:35;;;;;;;;;;;;;;;;;;4982789;28;20387;-88
2022/11/20 17:23:00;;;;;;;;;;;;;;;;;;4974833;28;20343;-89
2022/11/20 17:25:26;;;;;;;;;;;;;;;;;;5002722;28;20102;-86
2022/11/20 17:27:53;;;;;;;;;;;;;;;;;;5003716;28;19914;-87
2022/11/20 17:30:18;;;;;;;;;;;;;;;;;;5004098;28;19910;-91
2022/11/20 17:32:45;;;;;;;;;;;;;;;;;;5003251;28;19960;-91
2022/11/20 17:35:11;;;;;;;;;;;;;;;;;;4986832;28;19910;-92
2022/11/20 17:37:36;;;;;;;;;;;;;;;;;;5011838;28;19912;-91
2022/11/20 17:40:01;;;;;;;;;;;;;;;;;;5001175;28;19948;-84
2022/11/20 17:42:28;;;;;;;;;;;;;;;;;;5001882;28;19914;-88
2022/11/20 17:44:53;;;;;;;;;;;;;;;;;;5018601;28;19902;-89
2022/11/20 17:47:19;;;;;;;;;;;;;;;;;;5014570;28;19969;-84
2022/11/20 17:49:44;;;;;;;;;;;;;;;;;;5003214;28;19925;-90
2022/11/20 17:52:09;;;;;;;;;;;;;;;;;;5022002;28;19902;-87
2022/11/20 17:54:35;;;;;;;;;;;;;;;;;;5022018;28;19909;-85
2022/11/20 17:59:44;;;;;;;;;;;;;;;;;;5021690;28;19912;-88
2022/11/20 18:02:10;;;;;;;;;;;;;;;;;;5020193;28;19918;-90
2022/11/20 18:04:35;;;;;;;;;;;;;;;;;;5014316;28;19914;-85
2022/11/20 18:07:00;;;;;;;;;;;;;;;;;;5011873;28;19949;-86
2022/11/20 18:09:26;;;;;;;;;;;;;;;;;;5012500;28;19914;-87
2022/11/20 18:11:51;;;;;;;;;;;;;;;;;;5008932;28;20352;-84
2022/11/20 18:17:12;;;;;;;;;;;;;;;;;;4994350;28;19914;-84
2022/11/20 18:19:40;;;;;;;;;;;;;;;;;;5010324;28;19952;-87
2022/11/20 18:22:06;;;;;;;;;;;;;;;;;;5006459;28;19914;-85
2022/11/20 18:24:32;;;;;;;;;;;;;;;;;;5006154;28;20352;-85
2022/11/20 18:26:58;;;;;;;;;;;;;;;;;;5005875;28;19918;-85
2022/11/20 18:29:23;;;;;;;;;;;;;;;;;;5002900;28;19929;-85
2022/11/20 18:31:49;;;;;;;;;;;;;;;;;;4986436;28;19913;-82
2022/11/20 18:34:14;;;;;;;;;;;;;;;;;;5010855;28;19920;-80
2022/11/20 18:36:41;;;;;;;;;;;;;;;;;;5007884;28;19921;-81
2022/11/20 18:39:06;;;;;;;;;;;;;;;;;;5005442;28;19915;-80
2022/11/20 18:47:14;;;;;;;;;;;;;;;;;;5000886;28;19985;-83
2022/11/20 18:49:40;;;;;;;;;;;;;;;;;;4998672;28;19964;-80
2022/11/20 18:52:06;;;;;;;;;;;;;;;;;;4998536;28;19913;-80
2022/11/20 18:54:33;;;;;;;;;;;;;;;;;;4997557;28;19952;-83
2022/11/20 18:56:59;;;;;;;;;;;;;;;;;;4997324;28;19914;-81
2022/11/20 18:59:24;;;;;;;;;;;;;;;;;;4996731;28;20269;-83
2022/11/20 19:01:49;;;;;;;;;;;;;;;;;;4996040;28;20361;-82
2022/11/20 19:04:15;;;;;;;;;;;;;;;;;;4996993;28;20367;-82
2022/11/20 19:06:41;;;;;;;;;;;;;;;;;;4997624;28;20343;-85
2022/11/20 19:09:08;;;;;;;;;;;;;;;;;;5002288;28;19926;-87
2022/11/20 19:11:34;;;;;;;;;;;;;;;;;;5004013;28;20008;-82
2022/11/20 19:13:59;;;;;;;;;;;;;;;;;;5005567;28;19957;-83
2022/11/20 19:16:24;;;;;;;;;;;;;;;;;;5009469;28;19921;-83
2022/11/20 19:18:50;;;;;;;;;;;;;;;;;;5012273;28;19976;-84
2022/11/20 19:21:18;;;;;;;;;;;;;;;;;;5012849;28;19956;-82
2022/11/20 19:23:46;;;;;;;;;;;;;;;;;;5004960;28;19963;-83
2022/11/20 19:26:12;;;;;;;;;;;;;;;;;;4999903;28;19945;-83
2022/11/20 19:28:37;;;;;;;;;;;;;;;;;;4998452;28;19964;-83
2022/11/20 19:31:04;;;;;;;;;;;;;;;;;;4998678;28;20254;-85
2022/11/20 19:33:29;;;;;;;;;;;;;;;;;;4997834;28;19932;-85
2022/11/20 19:35:55;;;;;;;;;;;;;;;;;;4981223;28;19918;-84
2022/11/20 19:38:20;;;;;;;;;;;;;;;;;;4996879;28;19914;-83
2022/11/20 19:40:45;;;;;;;;;;;;;;;;;;4997503;28;19960;-84
2022/11/20 19:43:11;;;;;;;;;;;;;;;;;;4982124;28;19917;-84
2022/11/20 19:45:36;;;;;;;;;;;;;;;;;;4980583;28;19914;-83
2022/11/20 19:48:01;;;;;;;;;;;;;;;;;;4996171;28;19936;-84
2022/11/20 19:50:26;;;;;;;;;;;;;;;;;;4997035;28;19913;-85
2022/11/20 19:52:52;;;;;;;;;;;;;;;;;;4998429;28;19940;-84
2022/11/20 19:55:17;;;;;;;;;;;;;;;;;;4997581;28;20012;-84
2022/11/20 19:57:42;;;;;;;;;;;;;;;;;;4998930;28;19960;-84
2022/11/20 20:00:08;;;;;;;;;;;;;;;;;;4981864;28;19922;-84
2022/11/20 20:02:34;;;;;;;;;;;;;;;;;;4998366;28;19910;-84
2022/11/20 20:04:59;;;;;;;;;;;;;;;;;;5000082;28;19920;-84
2022/11/20 20:07:24;;;;;;;;;;;;;;;;;;4995800;28;19914;-82
2022/11/20 20:09:50;;;;;;;;;;;;;;;;;;4995828;28;19914;-82
2022/11/20 20:12:15;;;;;;;;;;;;;;;;;;4994735;28;19914;-82
2022/11/20 20:14:40;;;;;;;;;;;;;;;;;;4995624;28;19913;-81
2022/11/20 20:17:06;;;;;;;;;;;;;;;;;;4995579;28;19914;-82
2022/11/20 20:19:31;;;;;;;;;;;;;;;;;;4995284;28;19914;-82
2022/11/20 20:21:56;;;;;;;;;;;;;;;;;;4994587;28;20357;-84
2022/11/20 20:24:22;;;;;;;;;;;;;;;;;;4958328;28;20004;-82
2022/11/20 20:26:47;;;;;;;;;;;;;;;;;;4978599;28;20357;-84
2022/11/20 20:29:12;;;;;;;;;;;;;;;;;;4989897;28;19910;-83
2022/11/20 20:31:38;;;;;;;;;;;;;;;;;;4997317;28;19918;-83
2022/11/20 20:34:04;;;;;;;;;;;;;;;;;;4999855;28;19948;-84
2022/11/20 20:36:30;;;;;;;;;;;;;;;;;;4998887;28;20331;-83
2022/11/20 20:38:58;;;;;;;;;;;;;;;;;;4980042;28;19914;-85
2022/11/20 20:41:23;;;;;;;;;;;;;;;;;;4997474;28;19909;-82
2022/11/20 20:46:32;;;;;;;;;;;;;;;;;;4995669;28;19921;-83
2022/11/20 20:48:58;;;;;;;;;;;;;;;;;;4996065;28;19914;-83
2022/11/20 20:51:23;;;;;;;;;;;;;;;;;;4978682;28;20288;-84
2022/11/20 20:53:49;;;;;;;;;;;;;;;;;;4997563;28;19952;-85
2022/11/20 20:56:14;;;;;;;;;;;;;;;;;;4997443;28;19937;-84
2022/11/20 20:58:40;;;;;;;;;;;;;;;;;;4995938;28;19961;-84
2022/11/20 21:01:12;;;;;;;;;;;;;;;;;;4995343;28;19920;-82
2022/11/20 21:03:37;;;;;;;;;;;;;;;;;;4980233;28;19918;-83
2022/11/20 21:06:04;;;;;;;;;;;;;;;;;;4998745;28;19914;-86
2022/11/20 21:08:29;;;;;;;;;;;;;;;;;;4983707;28;20368;-86
2022/11/20 21:10:59;;;;;;;;;;;;;;;;;;5003838;28;19925;-87
2022/11/20 21:13:25;;;;;;;;;;;;;;;;;;4989802;28;19914;-86
2022/11/20 21:15:50;;;;;;;;;;;;;;;;;;4981537;28;19917;-85
2022/11/20 21:18:17;;;;;;;;;;;;;;;;;;4980715;28;19960;-85
2022/11/20 21:23:27;;;;;;;;;;;;;;;;;;4994320;28;19920;-83
2022/11/20 21:25:52;;;;;;;;;;;;;;;;;;5006164;28;19977;-87
2022/11/20 21:28:18;;;;;;;;;;;;;;;;;;5007629;28;19937;-86
2022/11/20 21:30:43;;;;;;;;;;;;;;;;;;4987692;28;19914;-85
2022/11/20 21:33:08;;;;;;;;;;;;;;;;;;5004720;28;19921;-87
2022/11/20 21:35:34;;;;;;;;;;;;;;;;;;4984838;28;20357;-86
2022/11/20 21:37:59;;;;;;;;;;;;;;;;;;4985496;28;19914;-87
2022/11/20 21:40:25;;;;;;;;;;;;;;;;;;5004078;28;19913;-86
2022/11/20 21:42:51;;;;;;;;;;;;;;;;;;4988140;28;19921;-87
2022/11/20 21:45:17;;;;;;;;;;;;;;;;;;4987733;28;19968;-87
2022/11/20 21:47:42;;;;;;;;;;;;;;;;;;4990997;28;19913;-89
2022/11/20 21:50:08;;;;;;;;;;;;;;;;;;4991362;28;19981;-87
2022/11/20 21:52:33;;;;;;;;;;;;;;;;;;5008401;28;19976;-86
2022/11/20 21:54:58;;;;;;;;;;;;;;;;;;5006401;28;19914;-87
2022/11/20 21:57:24;;;;;;;;;;;;;;;;;;5005742;28;19913;-87
2022/11/20 21:59:49;;;;;;;;;;;;;;;;;;5004118;28;19937;-88
2022/11/20 22:02:14;;;;;;;;;;;;;;;;;;5004047;28;20008;-86
2022/11/20 22:04:40;;;;;;;;;;;;;;;;;;5003119;28;19920;-88
2022/11/20 22:07:05;;;;;;;;;;;;;;;;;;5002679;28;19926;-86
2022/11/20 22:09:31;;;;;;;;;;;;;;;;;;5002496;28;19945;-87
2022/11/20 22:11:56;;;;;;;;;;;;;;;;;;5002458;28;20008;-87
2022/11/20 22:14:22;;;;;;;;;;;;;;;;;;5001608;28;20004;-86
2022/11/20 22:16:48;;;;;;;;;;;;;;;;;;5001791;28;19918;-86
2022/11/20 22:19:17;;;;;;;;;;;;;;;;;;5002245;28;20288;-86
2022/11/20 22:21:43;;;;;;;;;;;;;;;;;;5002508;28;19913;-86
2022/11/20 22:24:12;;;;;;;;;;;;;;;;;;4986110;28;19913;-87
2022/11/20 22:26:38;;;;;;;;;;;;;;;;;;5003946;28;19924;-86
2022/11/20 22:29:03;;;;;;;;;;;;;;;;;;4986359;28;20008;-86
2022/11/20 22:31:29;;;;;;;;;;;;;;;;;;4984518;28;19960;-86
2022/11/20 22:33:54;;;;;;;;;;;;;;;;;;5001552;28;19921;-84
2022/11/20 22:36:21;;;;;;;;;;;;;;;;;;5000932;28;19910;-87
2022/11/20 22:38:46;;;;;;;;;;;;;;;;;;5001968;28;20380;-85
2022/11/20 22:41:16;;;;;;;;;;;;;;;;;;5001201;28;19909;-86
2022/11/20 22:43:42;;;;;;;;;;;;;;;;;;5001257;28;20012;-88
2022/11/20 22:46:08;;;;;;;;;;;;;;;;;;5001384;28;19957;-86
2022/11/20 22:48:34;;;;;;;;;;;;;;;;;;4983594;28;19914;-86
2022/11/20 22:51:04;;;;;;;;;;;;;;;;;;4983908;28;20293;-87
2022/11/20 22:53:29;;;;;;;;;;;;;;;;;;5002458;28;20009;-87
2022/11/20 22:55:55;;;;;;;;;;;;;;;;;;5002870;28;19969;-84
2022/11/20 22:58:20;;;;;;;;;;;;;;;;;;5003428;28;19920;-86
2022/11/20 23:00:45;;;;;;;;;;;;;;;;;;5003164;28;20408;-85
2022/11/20 23:03:11;;;;;;;;;;;;;;;;;;5005384;28;19920;-88
2022/11/20 23:05:36;;;;;;;;;;;;;;;;;;4988814;28;20369;-85
2022/11/20 23:08:01;;;;;;;;;;;;;;;;;;5006486;28;19914;-87
2022/11/20 23:10:27;;;;;;;;;;;;;;;;;;5005212;28;19921;-86
2022/11/20 23:12:52;;;;;;;;;;;;;;;;;;4988713;28;19914;-84
2022/11/20 23:15:18;;;;;;;;;;;;;;;;;;5008875;28;19918;-86
2022/11/20 23:17:43;;;;;;;;;;;;;;;;;;5008061;28;20368;-83
2022/11/20 23:20:09;;;;;;;;;;;;;;;;;;5003460;28;19913;-85
